Time;durP1;ratioP1;P1;durP2;ratioP2;P2;SDS_P1;SDS_P2;PMS_P1;PMS_P2;Temp;Humidity;BMP_temperature;BMP_pressure;BME280_temperature;BME280_humidity;BME280_pressure;Samples;Min_cycle;Max_cycle;Signal;HPM_P1;HPM_P2
2021/06/12 00:00:46;;;;;;;5.35;4.10;;;18.80;82.20;;;;;;5072438;28;20021;-64
2021/06/12 00:03:11;;;;;;;4.82;4.30;;;18.80;82.30;;;;;;5070442;28;20037;-64
2021/06/12 00:05:37;;;;;;;6.45;4.72;;;18.80;82.30;;;;;;5073115;28;20472;-64
2021/06/12 00:08:03;;;;;;;6.18;5.18;;;18.80;82.40;;;;;;5074406;28;20013;-64
2021/06/12 00:10:32;;;;;;;5.53;4.60;;;18.80;82.40;;;;;;5068085;28;20032;-63
2021/06/12 00:12:58;;;;;;;7.60;5.32;;;18.80;82.40;;;;;;5073216;28;20044;-64
2021/06/12 00:15:25;;;;;;;5.78;4.80;;;18.80;82.30;;;;;;5072750;28;20404;-64
2021/06/12 00:17:51;;;;;;;7.40;5.00;;;18.80;82.30;;;;;;5062914;28;20091;-64
2021/06/12 00:20:25;;;;;;;6.80;5.00;;;18.80;82.30;;;;;;5073571;28;20537;-64
2021/06/12 00:22:51;;;;;;;6.20;4.47;;;18.80;82.90;;;;;;5071448;28;20089;-63
2021/06/12 00:25:20;;;;;;;5.60;4.32;;;18.70;82.40;;;;;;5072720;28;20016;-64
2021/06/12 00:27:46;;;;;;;4.95;4.40;;;18.70;82.40;;;;;;5071250;28;20024;-63
2021/06/12 00:30:13;;;;;;;5.68;4.85;;;18.70;82.50;;;;;;5072514;28;20350;-64
2021/06/12 00:32:39;;;;;;;4.75;4.25;;;18.70;82.50;;;;;;5072131;28;20028;-64
2021/06/12 00:35:07;;;;;;;5.10;4.57;;;18.70;82.70;;;;;;5073115;28;20095;-64
2021/06/12 00:37:32;;;;;;;5.25;4.57;;;18.70;82.60;;;;;;5072715;28;20086;-64
2021/06/12 00:39:58;;;;;;;5.43;4.05;;;18.70;82.70;;;;;;5072454;28;20028;-64
2021/06/12 00:42:24;;;;;;;5.25;4.45;;;18.70;82.60;;;;;;5072904;28;20036;-64
2021/06/12 00:44:50;;;;;;;5.00;4.50;;;18.70;82.70;;;;;;5074000;28;20023;-63
2021/06/12 00:47:15;;;;;;;4.68;4.15;;;18.70;82.70;;;;;;5073285;28;20059;-64
2021/06/12 00:49:41;;;;;;;4.80;4.30;;;18.70;82.50;;;;;;5071187;28;20162;-64
2021/06/12 00:52:07;;;;;;;6.30;4.28;;;18.70;82.60;;;;;;5066213;28;20065;-63
2021/06/12 00:54:33;;;;;;;6.05;4.43;;;18.70;82.40;;;;;;5073128;28;20028;-63
2021/06/12 00:56:59;;;;;;;5.00;4.43;;;18.70;82.60;;;;;;5072914;28;20451;-63
2021/06/12 00:59:25;;;;;;;6.05;4.30;;;18.70;82.60;;;;;;5069282;28;20035;-63
2021/06/12 01:01:51;;;;;;;6.10;4.28;;;18.70;82.60;;;;;;5071181;28;20028;-64
2021/06/12 07:05:39;;;;;;;3.65;3.20;;;25.40;61.20;;;;;;3358449;28;20136;-65
2021/06/12 07:08:05;;;;;;;3.70;3.30;;;25.30;61.20;;;;;;5065194;28;20103;-65
2021/06/12 07:10:31;;;;;;;3.55;3.25;;;25.30;61.20;;;;;;5072793;28;20484;-65
2021/06/12 07:13:01;;;;;;;3.40;3.10;;;25.30;61.30;;;;;;5072638;28;20024;-65
2021/06/12 07:15:27;;;;;;;4.45;3.25;;;25.30;61.30;;;;;;5071205;28;20040;-65
2021/06/12 07:17:53;;;;;;;3.53;3.17;;;25.30;61.30;;;;;;5071838;28;20461;-65
2021/06/12 07:20:19;;;;;;;3.63;3.00;;;25.20;61.40;;;;;;5067634;28;20028;-65
2021/06/12 07:22:45;;;;;;;3.42;2.97;;;25.20;61.60;;;;;;5071126;28;20013;-65
2021/06/12 07:25:11;;;;;;;4.38;3.35;;;25.20;61.50;;;;;;5066973;28;20384;-65
2021/06/12 07:27:37;;;;;;;4.38;3.45;;;25.20;61.30;;;;;;5067489;28;20062;-65
2021/06/12 07:30:04;;;;;;;3.25;2.95;;;25.20;61.70;;;;;;5074797;28;20472;-65
2021/06/12 07:32:30;;;;;;;4.22;3.55;;;25.20;61.80;;;;;;5074852;28;20054;-65
2021/06/12 07:34:55;;;;;;;3.50;3.20;;;25.20;61.80;;;;;;5074639;28;20505;-65
2021/06/12 07:37:21;;;;;;;3.17;2.90;;;25.10;61.60;;;;;;5073057;28;20167;-65
2021/06/12 07:39:47;;;;;;;4.13;3.00;;;25.10;61.50;;;;;;5073772;28;20081;-65
2021/06/12 07:42:13;;;;;;;4.65;2.90;;;25.20;61.90;;;;;;5067905;28;20083;-65
2021/06/12 07:44:38;;;;;;;4.13;2.90;;;25.10;61.90;;;;;;5074380;28;20047;-65
2021/06/12 07:47:04;;;;;;;3.00;2.80;;;25.10;61.90;;;;;;5069199;28;20013;-65
2021/06/12 07:49:30;;;;;;;3.00;2.70;;;25.10;61.90;;;;;;5072540;28;20028;-65
2021/06/12 07:51:56;;;;;;;4.10;2.83;;;25.20;62.00;;;;;;5072682;28;20146;-65
2021/06/12 07:54:22;;;;;;;3.65;2.83;;;25.10;61.90;;;;;;5072111;28;20029;-65
2021/06/12 07:56:48;;;;;;;3.20;2.90;;;25.20;62.00;;;;;;5070292;28;20028;-65
2021/06/12 07:59:14;;;;;;;2.95;2.65;;;25.20;61.90;;;;;;5073776;28;20039;-64
2021/06/12 08:01:39;;;;;;;3.08;2.80;;;25.20;62.20;;;;;;5067190;28;20538;-64
2021/06/12 08:04:05;;;;;;;2.70;2.50;;;25.20;62.40;;;;;;5079691;28;20025;-65
2021/06/12 08:06:31;;;;;;;2.63;2.42;;;25.20;62.20;;;;;;5069937;28;20079;-65
2021/06/12 08:08:57;;;;;;;3.97;2.78;;;25.20;62.00;;;;;;5072435;28;20031;-65
2021/06/12 08:11:22;;;;;;;3.25;2.95;;;25.20;62.20;;;;;;5078571;28;20024;-65
2021/06/12 08:13:48;;;;;;;3.80;2.80;;;25.20;62.90;;;;;;5073300;28;20106;-65
2021/06/12 08:16:14;;;;;;;3.90;2.85;;;25.10;62.30;;;;;;5077094;28;20442;-65
2021/06/12 08:18:40;;;;;;;2.92;2.72;;;25.20;62.30;;;;;;5080752;28;20032;-65
2021/06/12 08:21:05;;;;;;;2.92;2.58;;;25.20;62.10;;;;;;5074007;28;20036;-65
2021/06/12 08:23:31;;;;;;;4.35;2.97;;;25.10;62.10;;;;;;5071737;28;20040;-64
2021/06/12 08:25:57;;;;;;;2.95;2.60;;;25.10;62.00;;;;;;5074332;28;20027;-64
2021/06/12 08:28:23;;;;;;;2.97;2.70;;;25.10;61.90;;;;;;5073200;28;20062;-65
2021/06/12 08:30:49;;;;;;;2.60;2.30;;;25.10;61.90;;;;;;5076968;28;20020;-65
2021/06/12 08:33:15;;;;;;;2.92;2.60;;;25.10;62.20;;;;;;5071894;28;20523;-64
2021/06/12 08:35:40;;;;;;;2.80;2.60;;;25.10;62.10;;;;;;5072678;28;20033;-64
2021/06/12 08:38:08;;;;;;;3.08;2.70;;;25.00;61.90;;;;;;5063032;28;20550;-64
2021/06/12 08:40:34;;;;;;;3.13;2.67;;;25.00;61.90;;;;;;5072880;28;20135;-64
2021/06/12 08:43:00;;;;;;;2.80;2.60;;;25.00;61.80;;;;;;5068369;28;20115;-65
2021/06/12 08:45:29;;;;;;;3.05;2.72;;;25.00;61.70;;;;;;5080816;28;20028;-65
2021/06/12 08:47:56;;;;;;;3.10;2.80;;;25.00;61.60;;;;;;5076311;28;20036;-65
2021/06/12 08:50:24;;;;;;;3.13;2.55;;;24.90;61.80;;;;;;5071148;28;20509;-65
2021/06/12 08:52:53;;;;;;;3.78;2.45;;;24.80;61.80;;;;;;5072252;28;20037;-65
2021/06/12 08:55:19;;;;;;;2.60;2.40;;;24.80;62.00;;;;;;5085889;28;20146;-64
2021/06/12 08:57:45;;;;;;;3.03;2.50;;;24.70;62.00;;;;;;5071679;28;20028;-64
2021/06/12 09:00:12;;;;;;;2.78;2.58;;;24.70;62.30;;;;;;5071505;28;20028;-64
2021/06/12 09:03:02;;;;;;;2.83;2.63;;;24.70;62.30;;;;;;5068239;28;20107;-65
2021/06/12 09:05:45;;;;;;;3.17;2.88;;;24.60;62.20;;;;;;5059750;28;20428;-65
2021/06/12 09:08:12;;;;;;;2.80;2.47;;;24.50;62.20;;;;;;5070213;28;20043;-65
2021/06/12 09:11:09;;;;;;;2.85;2.63;;;24.50;62.50;;;;;;5069715;28;20043;-64
2021/06/12 09:13:45;;;;;;;2.70;2.50;;;24.40;62.50;;;;;;5053159;28;20480;-64
2021/06/12 09:16:22;;;;;;;2.88;2.67;;;24.40;62.50;;;;;;5069389;28;20078;-64
2021/06/12 09:18:49;;;;;;;4.35;2.50;;;24.40;62.50;;;;;;5073214;28;20334;-64
2021/06/12 09:21:30;;;;;;;5.00;2.45;;;24.30;62.60;;;;;;5069238;28;20036;-64
2021/06/12 09:23:57;;;;;;;;;;;24.30;62.60;;;;;;5063809;28;20076;-65
2021/06/12 09:27:05;;;;;;;2.47;2.28;;;24.20;62.50;;;;;;5070225;28;19914;-65
2021/06/12 09:29:41;;;;;;;2.65;2.45;;;24.20;62.40;;;;;;5059571;28;20049;-64
2021/06/12 09:32:16;;;;;;;2.78;2.50;;;24.10;62.30;;;;;;5062224;28;20107;-65
2021/06/12 09:34:43;;;;;;;2.90;2.60;;;24.10;62.50;;;;;;5077260;28;20021;-64
2021/06/12 09:37:14;;;;;;;3.28;2.70;;;24.10;62.70;;;;;;5062360;28;20062;-65
2021/06/12 09:39:39;;;;;;;2.58;2.38;;;24.00;62.60;;;;;;5069760;28;20024;-65
2021/06/12 09:42:06;;;;;;;3.90;2.63;;;24.00;62.50;;;;;;5067123;28;20342;-65
2021/06/12 09:44:41;;;;;;;2.60;2.40;;;24.00;62.20;;;;;;5058312;28;20457;-65
2021/06/12 09:47:23;;;;;;;2.72;2.40;;;24.00;62.00;;;;;;5069699;28;20097;-65
2021/06/12 09:49:50;;;;;;;3.22;2.88;;;23.90;61.90;;;;;;5071298;28;20028;-65
2021/06/12 09:52:18;;;;;;;3.38;2.58;;;23.90;62.10;;;;;;5062161;28;20450;-64
2021/06/12 09:54:47;;;;;;;2.67;2.47;;;23.90;62.40;;;;;;5068188;28;20020;-64
2021/06/12 09:57:16;;;;;;;4.28;2.42;;;23.90;62.70;;;;;;5071214;28;20052;-64
2021/06/12 09:59:43;;;;;;;2.70;2.50;;;23.90;62.80;;;;;;5062320;28;20035;-64
2021/06/12 10:02:10;;;;;;;2.92;2.72;;;23.90;63.20;;;;;;5062185;28;20032;-64
2021/06/12 10:04:36;;;;;;;2.70;2.50;;;23.90;63.10;;;;;;5062500;28;20032;-64
2021/06/12 10:07:02;;;;;;;2.85;2.53;;;23.90;63.20;;;;;;5080897;28;20040;-64
2021/06/12 10:09:28;;;;;;;2.85;2.58;;;23.90;63.30;;;;;;5076840;28;20531;-65
2021/06/12 10:11:55;;;;;;;3.47;2.78;;;23.80;63.20;;;;;;5072878;28;20021;-65
2021/06/12 10:14:21;;;;;;;3.55;2.70;;;23.80;62.90;;;;;;5074821;28;20099;-64
2021/06/12 10:16:48;;;;;;;3.45;2.40;;;23.80;63.30;;;;;;5072490;28;20090;-65
2021/06/12 10:19:18;;;;;;;3.42;3.13;;;23.80;63.40;;;;;;5070037;28;20031;-65
2021/06/12 10:21:46;;;;;;;3.30;3.00;;;23.80;63.30;;;;;;5075280;28;20111;-65
2021/06/12 10:24:12;;;;;;;3.13;2.83;;;23.80;63.50;;;;;;5075681;28;20287;-65
2021/06/12 10:26:38;;;;;;;3.70;3.40;;;23.80;63.80;;;;;;5075595;28;20021;-64
2021/06/12 10:29:05;;;;;;;3.40;3.10;;;23.70;63.80;;;;;;5076241;28;20107;-64
2021/06/12 10:31:34;;;;;;;3.28;2.97;;;23.80;63.70;;;;;;5078396;28;20031;-64
2021/06/12 10:34:01;;;;;;;3.28;2.97;;;23.80;64.50;;;;;;5076063;28;20074;-65
2021/06/12 10:36:29;;;;;;;3.22;2.92;;;23.70;63.50;;;;;;5065977;28;20100;-64
2021/06/12 10:38:56;;;;;;;3.35;3.05;;;23.70;63.60;;;;;;5080990;28;20047;-64
2021/06/12 10:41:27;;;;;;;3.50;3.20;;;23.70;63.80;;;;;;5076038;28;20032;-64
2021/06/12 10:43:59;;;;;;;2.65;2.45;;;23.70;63.90;;;;;;5074702;28;20085;-64
2021/06/12 10:46:26;;;;;;;2.65;2.45;;;23.80;63.80;;;;;;5073173;28;20032;-64
2021/06/12 10:49:03;;;;;;;3.85;2.95;;;23.70;63.40;;;;;;5074483;28;20083;-64
2021/06/12 10:51:30;;;;;;;2.83;2.63;;;23.70;63.10;;;;;;5056929;28;20025;-65
2021/06/12 10:54:11;;;;;;;2.92;2.65;;;23.70;63.10;;;;;;5075156;28;20012;-65
2021/06/12 10:56:39;;;;;;;3.00;2.70;;;23.70;63.40;;;;;;5065741;28;20079;-65
2021/06/12 10:59:06;;;;;;;2.75;2.50;;;23.70;62.70;;;;;;5061360;28;20025;-64
2021/06/12 11:01:32;;;;;;;2.92;2.63;;;23.70;62.60;;;;;;5072933;28;20028;-64
2021/06/12 11:04:14;;;;;;;3.17;2.83;;;23.70;62.40;;;;;;5075314;28;20036;-64
2021/06/12 11:06:45;;;;;;;2.60;2.40;;;23.70;62.40;;;;;;5073624;28;20044;-64
2021/06/12 11:09:13;;;;;;;3.00;2.70;;;23.70;61.90;;;;;;5076086;28;20146;-64
2021/06/12 11:11:47;;;;;;;3.13;2.83;;;23.70;62.10;;;;;;5068515;28;20079;-64
2021/06/12 11:14:21;;;;;;;4.63;2.50;;;23.70;62.20;;;;;;5068514;28;20032;-64
2021/06/12 11:17:05;;;;;;;2.65;2.45;;;23.70;62.60;;;;;;5072774;28;20025;-65
2021/06/12 11:19:35;;;;;;;2.70;2.50;;;23.70;62.20;;;;;;5071969;28;20035;-64
2021/06/12 11:22:27;;;;;;;2.70;2.50;;;23.70;62.40;;;;;;5063647;28;20411;-65
2021/06/12 11:25:10;;;;;;;2.83;2.55;;;23.70;62.30;;;;;;5066846;28;20033;-64
2021/06/12 11:27:45;;;;;;;3.40;3.10;;;23.60;63.30;;;;;;5075227;28;20028;-64
2021/06/12 11:30:17;;;;;;;3.20;2.90;;;23.60;62.80;;;;;;5068094;28;20027;-65
2021/06/12 11:33:00;;;;;;;2.90;2.70;;;23.60;62.90;;;;;;5073181;28;20028;-65
2021/06/12 11:35:38;;;;;;;2.97;2.65;;;23.60;62.70;;;;;;5073309;28;20082;-64
2021/06/12 11:38:19;;;;;;;2.70;2.50;;;23.70;62.80;;;;;;5071165;28;20493;-65
2021/06/12 11:40:57;;;;;;;3.50;3.00;;;23.60;62.60;;;;;;5072137;28;20039;-64
2021/06/12 11:43:45;;;;;;;3.20;2.90;;;23.60;62.30;;;;;;5073791;28;20032;-64
2021/06/12 11:46:13;;;;;;;3.08;2.78;;;23.60;62.50;;;;;;5072592;28;20032;-64
2021/06/12 11:48:45;;;;;;;3.20;2.90;;;23.60;62.80;;;;;;5070776;28;20120;-64
2021/06/12 11:51:28;;;;;;;3.00;2.70;;;23.60;62.70;;;;;;5071745;28;20024;-64
2021/06/12 11:54:13;;;;;;;3.22;2.67;;;23.60;62.60;;;;;;5070611;28;20107;-64
2021/06/12 11:56:40;;;;;;;3.10;2.80;;;23.60;62.70;;;;;;5062999;28;20055;-65
2021/06/12 11:59:08;;;;;;;3.60;2.70;;;23.60;62.80;;;;;;5062851;28;20100;-64
2021/06/12 12:01:39;;;;;;;3.20;2.90;;;23.60;62.90;;;;;;5072867;28;20034;-65
2021/06/12 12:04:07;;;;;;;3.03;2.72;;;23.60;63.00;;;;;;5073419;28;20032;-65
2021/06/12 12:06:33;;;;;;;3.55;2.70;;;23.60;63.20;;;;;;5073507;28;20068;-64
2021/06/12 12:08:58;;;;;;;4.13;2.92;;;23.60;63.00;;;;;;5071876;28;20578;-65
2021/06/12 12:11:24;;;;;;;3.00;2.70;;;23.60;62.80;;;;;;5072757;28;20048;-65
2021/06/12 12:14:02;;;;;;;3.10;2.80;;;23.60;62.60;;;;;;5069935;28;20067;-64
2021/06/12 12:16:28;;;;;;;2.92;2.70;;;23.60;62.50;;;;;;5068904;28;20376;-64
2021/06/12 12:18:57;;;;;;;2.92;2.65;;;23.60;62.80;;;;;;5072817;28;20033;-65
2021/06/12 12:21:40;;;;;;;2.83;2.63;;;23.60;62.90;;;;;;5074551;28;20462;-64
2021/06/12 12:24:08;;;;;;;3.47;3.00;;;23.60;62.80;;;;;;5070416;28;20515;-64
2021/06/12 12:26:36;;;;;;;2.80;2.60;;;23.60;63.00;;;;;;5071069;28;20032;-65
2021/06/12 12:29:14;;;;;;;3.17;2.88;;;23.60;62.90;;;;;;5069720;28;20040;-64
2021/06/12 12:31:46;;;;;;;3.53;3.22;;;23.60;63.10;;;;;;5067086;28;20079;-65
2021/06/12 12:34:12;;;;;;;4.85;2.88;;;23.60;63.30;;;;;;5070237;28;20036;-64
2021/06/12 12:36:46;;;;;;;2.88;2.60;;;23.60;63.10;;;;;;5065278;28;20037;-64
2021/06/12 12:39:13;;;;;;;2.88;2.58;;;23.60;63.40;;;;;;5088201;28;20028;-64
2021/06/12 12:41:39;;;;;;;3.65;2.78;;;23.60;62.70;;;;;;5072838;28;20111;-64
2021/06/12 12:44:13;;;;;;;3.35;2.90;;;23.60;62.60;;;;;;5073671;28;20473;-64
2021/06/12 12:46:41;;;;;;;3.83;2.95;;;23.60;62.60;;;;;;5069833;28;20038;-64
2021/06/12 12:49:08;;;;;;;2.85;2.65;;;23.60;63.00;;;;;;5062436;28;20029;-64
2021/06/12 12:51:35;;;;;;;3.25;2.95;;;23.60;63.30;;;;;;5066003;28;20519;-65
2021/06/12 12:54:12;;;;;;;2.90;2.65;;;23.60;62.80;;;;;;5068429;28;20025;-65
2021/06/12 12:56:48;;;;;;;3.20;2.90;;;23.60;62.40;;;;;;5069305;28;20068;-65
2021/06/12 12:59:28;;;;;;;2.92;2.65;;;23.70;62.40;;;;;;5071316;28;20107;-65
2021/06/12 13:01:55;;;;;;;2.92;2.63;;;23.70;62.00;;;;;;5067012;28;20029;-64
2021/06/12 13:04:39;;;;;;;3.20;2.90;;;23.60;62.10;;;;;;5073950;28;20514;-64
2021/06/12 13:07:15;;;;;;;2.83;2.63;;;23.70;62.30;;;;;;5071896;28;20044;-64
2021/06/12 13:09:46;;;;;;;3.10;2.75;;;23.60;62.10;;;;;;5069088;28;20024;-65
2021/06/12 13:12:19;;;;;;;3.22;2.92;;;23.70;62.00;;;;;;5078478;28;20024;-65
2021/06/12 13:14:56;;;;;;;3.20;2.90;;;23.70;62.10;;;;;;5072967;28;20020;-65
2021/06/12 13:17:23;;;;;;;3.45;3.03;;;23.70;62.40;;;;;;5077215;28;20033;-64
2021/06/12 13:19:49;;;;;;;3.08;2.85;;;23.70;62.40;;;;;;5072799;28;20054;-64
2021/06/12 13:22:41;;;;;;;2.65;2.45;;;23.70;62.50;;;;;;5073883;28;20024;-64
2021/06/12 13:25:08;;;;;;;2.88;2.65;;;23.70;62.30;;;;;;5073361;28;20081;-64
2021/06/12 13:27:38;;;;;;;3.30;2.78;;;23.70;62.40;;;;;;5075844;28;20048;-64
2021/06/12 13:30:18;;;;;;;3.22;2.92;;;23.70;62.10;;;;;;5078577;28;20024;-64
2021/06/12 13:32:56;;;;;;;3.25;2.80;;;23.70;62.30;;;;;;5065088;28;20025;-65
2021/06/12 13:35:29;;;;;;;2.88;2.58;;;23.70;62.40;;;;;;5069017;28;20055;-65
2021/06/12 13:38:18;;;;;;;3.40;2.85;;;23.70;62.60;;;;;;5068546;28;20492;-65
2021/06/12 13:40:56;;;;;;;4.20;3.80;;;23.70;62.30;;;;;;5072812;28;20464;-65
2021/06/12 13:43:23;;;;;;;4.70;3.67;;;23.70;62.30;;;;;;5067163;28;20060;-65
2021/06/12 13:45:54;;;;;;;4.10;3.30;;;23.70;61.90;;;;;;5061588;28;20029;-65
2021/06/12 13:51:41;;;;;;;3.88;3.20;;;23.70;61.80;;;;;;5069472;28;20035;-65
2021/06/12 13:54:07;;;;;;;3.33;3.03;;;23.70;61.60;;;;;;5068725;28;20020;-65
2021/06/12 13:56:33;;;;;;;3.58;3.17;;;23.70;61.40;;;;;;5071435;28;20396;-65
2021/06/12 13:58:59;;;;;;;4.68;3.15;;;23.70;61.20;;;;;;5070064;28;20120;-65
2021/06/12 14:01:25;;;;;;;4.55;2.97;;;23.70;61.40;;;;;;5073157;28;20476;-64
2021/06/12 14:03:51;;;;;;;3.22;2.92;;;23.70;61.50;;;;;;5073188;28;20078;-64
2021/06/12 14:06:16;;;;;;;3.20;2.90;;;23.70;61.60;;;;;;5072597;28;20373;-64
2021/06/12 14:08:42;;;;;;;4.55;2.90;;;23.70;61.60;;;;;;5066750;28;20040;-64
2021/06/12 14:11:08;;;;;;;4.07;2.80;;;23.70;61.80;;;;;;5071086;28;20020;-64
2021/06/12 14:13:35;;;;;;;3.03;2.72;;;23.70;61.40;;;;;;5069278;28;20116;-65
2021/06/12 14:16:01;;;;;;;3.15;2.80;;;23.70;61.40;;;;;;5071303;28;20468;-64
2021/06/12 14:18:27;;;;;;;3.30;3.00;;;23.70;61.50;;;;;;5068356;28;20036;-64
2021/06/12 14:20:52;;;;;;;3.00;2.70;;;23.70;61.60;;;;;;5072013;28;20028;-64
2021/06/12 14:23:18;;;;;;;3.03;2.72;;;23.70;61.40;;;;;;5070160;28;20039;-65
2021/06/12 14:25:46;;;;;;;3.40;3.00;;;23.70;61.30;;;;;;5071547;28;20470;-65
2021/06/12 14:28:14;;;;;;;3.30;3.00;;;23.70;61.30;;;;;;5069431;28;20028;-64
2021/06/12 14:30:40;;;;;;;4.10;2.97;;;23.70;61.80;;;;;;5071261;28;20037;-64
2021/06/12 14:33:06;;;;;;;2.90;2.70;;;23.70;62.40;;;;;;5060705;28;20036;-64
2021/06/12 14:35:34;;;;;;;3.30;3.00;;;23.70;62.60;;;;;;5059958;28;20377;-65
2021/06/12 14:37:59;;;;;;;2.90;2.60;;;23.70;62.60;;;;;;5071149;28;20044;-65
2021/06/12 14:40:25;;;;;;;3.70;3.00;;;23.70;62.50;;;;;;5064430;28;20029;-65
2021/06/12 14:42:53;;;;;;;3.67;3.38;;;23.70;62.10;;;;;;5071912;28;20396;-65
2021/06/12 14:45:18;;;;;;;3.42;3.10;;;23.70;62.10;;;;;;5067872;28;20052;-67
2021/06/12 14:47:44;;;;;;;3.03;2.72;;;23.80;61.90;;;;;;5071396;28;20067;-68
2021/06/12 14:50:10;;;;;;;3.03;2.72;;;23.80;61.80;;;;;;5071058;28;20025;-68
2021/06/12 14:52:37;;;;;;;3.10;2.72;;;23.80;62.10;;;;;;5072626;28;20025;-68
2021/06/12 14:55:04;;;;;;;3.40;3.00;;;23.80;62.20;;;;;;5075176;28;20035;-68
2021/06/12 14:57:30;;;;;;;3.40;3.10;;;23.80;62.10;;;;;;5063505;28;20420;-68
2021/06/12 14:59:56;;;;;;;3.65;3.17;;;23.80;61.50;;;;;;5064407;28;20028;-68
2021/06/12 15:02:21;;;;;;;5.32;4.65;;;23.80;62.00;;;;;;5075814;28;20441;-68
2021/06/12 15:04:47;;;;;;;5.05;4.55;;;23.80;61.30;;;;;;5074926;28;20055;-68
2021/06/12 15:07:13;;;;;;;4.18;3.70;;;23.80;61.30;;;;;;5073730;28;20032;-68
2021/06/12 15:09:39;;;;;;;3.30;3.00;;;23.80;61.40;;;;;;5073709;28;20032;-68
2021/06/12 15:12:05;;;;;;;4.82;3.70;;;23.80;61.30;;;;;;5072110;28;20055;-68
2021/06/12 15:14:31;;;;;;;3.50;3.20;;;23.80;61.20;;;;;;5072177;28;20039;-68
2021/06/12 15:16:57;;;;;;;5.15;3.53;;;23.80;61.70;;;;;;5072926;28;20461;-68
2021/06/12 15:19:22;;;;;;;3.70;3.30;;;23.80;62.60;;;;;;5070139;28;20032;-68
2021/06/12 15:21:48;;;;;;;3.92;3.53;;;23.80;63.10;;;;;;5074172;28;20680;-68
2021/06/12 15:24:14;;;;;;;4.40;3.70;;;23.80;62.80;;;;;;5075545;28;20047;-68
2021/06/12 15:26:40;;;;;;;4.00;3.60;;;23.80;62.80;;;;;;5074539;28;20028;-68
2021/06/12 15:29:06;;;;;;;4.05;3.65;;;23.80;62.90;;;;;;5074181;28;20016;-68
2021/06/12 15:31:32;;;;;;;3.90;3.50;;;23.80;63.40;;;;;;5073989;28;20024;-68
2021/06/12 15:33:58;;;;;;;5.35;3.75;;;23.80;63.80;;;;;;5073934;28;20029;-68
2021/06/12 15:36:24;;;;;;;5.00;3.83;;;23.80;63.80;;;;;;5064545;28;20029;-68
2021/06/12 15:38:50;;;;;;;4.28;3.88;;;23.70;63.90;;;;;;5055326;28;20142;-68
2021/06/12 15:41:15;;;;;;;4.20;3.60;;;23.70;63.80;;;;;;5075601;28;20039;-68
2021/06/12 15:43:41;;;;;;;4.53;3.40;;;23.70;63.70;;;;;;5073530;28;20024;-68
2021/06/12 15:46:07;;;;;;;4.00;3.60;;;23.70;63.50;;;;;;5073894;28;20021;-68
2021/06/12 15:48:33;;;;;;;3.55;3.25;;;23.70;63.70;;;;;;5070595;28;20091;-68
2021/06/12 15:50:59;;;;;;;5.90;3.95;;;23.70;63.70;;;;;;5075142;28;20472;-68
2021/06/12 15:53:25;;;;;;;4.63;4.18;;;23.70;63.70;;;;;;5072416;28;20029;-67
2021/06/12 15:55:51;;;;;;;3.88;3.47;;;23.70;64.00;;;;;;5074699;28;20020;-68
2021/06/12 15:58:17;;;;;;;5.57;3.78;;;23.70;64.40;;;;;;5074029;28;20024;-68
2021/06/12 16:00:43;;;;;;;4.30;3.90;;;23.70;64.30;;;;;;5074865;28;20031;-68
2021/06/12 16:03:08;;;;;;;4.38;3.97;;;23.60;64.40;;;;;;5064852;28;20029;-68
2021/06/12 16:05:34;;;;;;;4.78;4.07;;;23.60;64.00;;;;;;5069272;28;20033;-68
2021/06/12 16:08:00;;;;;;;4.15;3.72;;;23.60;64.10;;;;;;5074824;28;20094;-68
2021/06/12 16:10:25;;;;;;;5.15;4.22;;;23.60;64.40;;;;;;5074059;28;20449;-68
2021/06/12 16:12:51;;;;;;;4.03;3.63;;;23.60;64.60;;;;;;5073861;28;20012;-68
2021/06/12 16:15:19;;;;;;;4.63;4.10;;;23.60;64.70;;;;;;5073135;28;20427;-68
2021/06/12 16:17:45;;;;;;;6.78;3.80;;;23.60;64.60;;;;;;5065927;28;20033;-68
2021/06/12 16:20:13;;;;;;;3.90;3.47;;;23.50;64.50;;;;;;5073784;28;20035;-68
2021/06/12 16:22:39;;;;;;;4.40;3.45;;;23.50;64.50;;;;;;5069005;28;20029;-68
2021/06/12 16:25:09;;;;;;;3.92;3.35;;;23.50;64.60;;;;;;5072665;28;20040;-68
2021/06/12 16:27:35;;;;;;;4.80;4.30;;;23.40;64.70;;;;;;5072444;28;20028;-68
2021/06/12 16:30:04;;;;;;;4.38;3.60;;;23.50;65.00;;;;;;5074719;28;20357;-68
2021/06/12 16:32:29;;;;;;;4.22;3.70;;;23.40;64.90;;;;;;5073515;28;20016;-68
2021/06/12 16:34:55;;;;;;;4.28;3.88;;;23.50;64.90;;;;;;5071760;28;20047;-68
2021/06/12 16:37:21;;;;;;;4.25;3.85;;;23.40;64.80;;;;;;5072095;28;20039;-68
2021/06/12 16:39:46;;;;;;;4.78;4.05;;;23.40;64.90;;;;;;5072994;28;20025;-68
2021/06/12 16:42:12;;;;;;;5.03;4.22;;;23.40;64.70;;;;;;5064974;28;20116;-67
2021/06/12 16:44:38;;;;;;;5.07;3.85;;;23.40;64.70;;;;;;5070151;28;20029;-68
2021/06/12 16:47:04;;;;;;;5.63;4.93;;;23.40;64.80;;;;;;5059029;28;20025;-68
2021/06/12 16:49:31;;;;;;;5.35;4.80;;;23.30;64.80;;;;;;5060605;28;20111;-67
2021/06/12 16:51:56;;;;;;;5.85;4.82;;;23.40;64.70;;;;;;5072968;28;20024;-67
2021/06/12 16:59:31;;;;;;;5.20;4.70;;;23.20;65.00;;;;;;5068440;28;20029;-67
2021/06/12 17:01:57;;;;;;;6.15;5.07;;;23.20;65.20;;;;;;5073174;28;20024;-67
2021/06/12 17:04:22;;;;;;;7.07;5.50;;;23.20;65.00;;;;;;5067265;28;20048;-68
2021/06/12 17:06:48;;;;;;;5.75;4.93;;;23.20;64.80;;;;;;5066214;28;20048;-68
2021/06/12 17:09:14;;;;;;;5.13;4.63;;;23.10;64.60;;;;;;5070521;28;20027;-67
2021/06/12 17:11:40;;;;;;;4.88;4.45;;;23.20;64.70;;;;;;5072281;28;20408;-67
2021/06/12 17:14:05;;;;;;;5.18;4.57;;;23.20;65.00;;;;;;5072850;28;20028;-68
2021/06/12 17:16:32;;;;;;;5.55;4.43;;;23.10;65.20;;;;;;5072301;28;20031;-68
2021/06/12 17:18:59;;;;;;;6.95;4.40;;;23.20;65.20;;;;;;5071381;28;20025;-67
2021/06/12 17:21:26;;;;;;;5.20;4.70;;;23.10;65.20;;;;;;5073543;28;20025;-67
2021/06/12 17:23:52;;;;;;;5.65;4.70;;;23.10;65.00;;;;;;5070370;28;20029;-67
2021/06/12 17:26:18;;;;;;;8.13;5.20;;;23.10;65.10;;;;;;5073669;28;20028;-67
2021/06/12 17:28:44;;;;;;;5.30;4.80;;;23.10;65.00;;;;;;5070173;28;20023;-67
2021/06/12 17:31:10;;;;;;;6.60;5.88;;;23.10;65.10;;;;;;5071960;28;20461;-67
2021/06/12 17:33:35;;;;;;;6.40;5.72;;;23.10;64.70;;;;;;5072130;28;20651;-68
2021/06/12 17:36:08;;;;;;;8.15;5.50;;;23.20;64.60;;;;;;5072439;28;20013;-67
2021/06/12 17:38:35;;;;;;;7.18;6.32;;;23.10;64.60;;;;;;5073328;28;20103;-67
2021/06/12 17:41:01;;;;;;;7.03;5.57;;;23.10;64.80;;;;;;5072171;28;20027;-68
2021/06/12 17:43:27;;;;;;;6.05;5.00;;;23.10;65.00;;;;;;5072260;28;20533;-67
2021/06/12 17:45:53;;;;;;;6.07;4.85;;;23.10;65.10;;;;;;5071952;28;20098;-67
2021/06/12 17:48:19;;;;;;;5.05;4.32;;;23.10;65.40;;;;;;5072906;28;20079;-67
2021/06/12 17:50:45;;;;;;;7.78;6.93;;;23.00;65.40;;;;;;5071559;28;20028;-67
2021/06/12 17:53:11;;;;;;;10.60;9.07;;;23.10;65.70;;;;;;5072217;28;20432;-67
2021/06/12 17:55:37;;;;;;;8.73;6.07;;;23.00;65.90;;;;;;5063663;28;20066;-68
2021/06/12 17:58:04;;;;;;;5.97;4.78;;;23.00;65.90;;;;;;5072258;28;20481;-68
2021/06/12 18:00:29;;;;;;;5.40;4.85;;;23.00;66.50;;;;;;5071404;28;20401;-68
2021/06/12 18:02:55;;;;;;;6.20;4.85;;;23.00;66.60;;;;;;5072393;28;20021;-67
2021/06/12 18:05:21;;;;;;;6.38;4.55;;;22.90;66.70;;;;;;5071873;28;20021;-67
2021/06/12 18:07:49;;;;;;;7.85;4.60;;;22.90;66.80;;;;;;5071077;28;20129;-67
2021/06/12 18:10:15;;;;;;;5.28;4.70;;;22.90;66.80;;;;;;5069500;28;20492;-67
2021/06/12 18:12:40;;;;;;;5.93;4.95;;;22.90;66.70;;;;;;5073008;28;20062;-67
2021/06/12 18:15:07;;;;;;;5.25;4.75;;;22.80;66.30;;;;;;5073063;28;20104;-67
2021/06/12 18:17:33;;;;;;;6.30;4.65;;;22.80;66.40;;;;;;5071840;28;20032;-67
2021/06/12 18:19:58;;;;;;;8.32;4.85;;;22.80;66.40;;;;;;5070717;28;20412;-67
2021/06/12 18:22:24;;;;;;;5.70;4.40;;;22.70;66.50;;;;;;5072553;28;20029;-67
2021/06/12 18:24:50;;;;;;;4.97;4.35;;;22.70;66.50;;;;;;5072638;28;20377;-67
2021/06/12 18:27:15;;;;;;;5.70;4.60;;;22.70;66.70;;;;;;5060981;28;20021;-67
2021/06/12 18:29:41;;;;;;;6.43;4.75;;;22.60;66.60;;;;;;5072631;28;20024;-67
2021/06/12 18:32:07;;;;;;;6.32;4.53;;;22.60;66.50;;;;;;5075423;28;20484;-67
2021/06/12 18:34:33;;;;;;;6.22;4.57;;;22.60;66.60;;;;;;5075772;28;20033;-67
2021/06/12 18:36:58;;;;;;;4.95;4.30;;;22.60;66.70;;;;;;5076666;28;20024;-68
2021/06/12 18:39:24;;;;;;;5.07;4.30;;;22.60;66.80;;;;;;5074617;28;20077;-67
2021/06/12 18:41:50;;;;;;;6.05;4.45;;;22.50;66.80;;;;;;5071316;28;20032;-67
2021/06/12 18:44:16;;;;;;;4.78;4.32;;;22.50;66.80;;;;;;5076460;28;20036;-67
2021/06/12 18:46:41;;;;;;;5.97;4.72;;;22.50;66.80;;;;;;5075490;28;20024;-67
2021/06/12 18:49:07;;;;;;;5.40;4.80;;;22.50;66.90;;;;;;5074464;28;20095;-67
2021/06/12 18:51:33;;;;;;;5.78;4.72;;;22.50;66.80;;;;;;5075558;28;20027;-67
2021/06/12 18:53:59;;;;;;;5.05;4.43;;;22.50;66.90;;;;;;5074081;28;20357;-67
2021/06/12 18:56:24;;;;;;;5.47;4.90;;;22.50;67.00;;;;;;5075243;28;20036;-67
2021/06/12 18:58:50;;;;;;;5.93;4.38;;;22.50;67.00;;;;;;5068462;28;20035;-67
2021/06/12 19:01:16;;;;;;;6.00;4.70;;;22.50;67.00;;;;;;5075197;28;20426;-68
2021/06/12 19:03:41;;;;;;;5.28;4.55;;;22.50;66.90;;;;;;5074813;28;20036;-67